sensor_id;sensor_type;location;lat;lon;timestamp;P1;durP1;ratioP1;P2;durP2;ratioP2
84682;SDS011;74905;44.124;18.116;2023-12-22T00:00:23;643.90;;;296.38;;
84682;SDS011;74905;44.124;18.116;2023-12-22T00:02:48;625.00;;;297.95;;
84682;SDS011;74905;44.124;18.116;2023-12-22T00:05:14;610.30;;;286.23;;
84682;SDS011;74905;44.124;18.116;2023-12-22T00:07:39;638.15;;;290.67;;
84682;SDS011;74905;44.124;18.116;2023-12-22T00:10:05;577.00;;;268.88;;
84682;SDS011;74905;44.124;18.116;2023-12-22T00:12:31;605.30;;;275.27;;
84682;SDS011;74905;44.124;18.116;2023-12-22T00:14:56;592.55;;;273.02;;
84682;SDS011;74905;44.124;18.116;2023-12-22T00:17:22;581.53;;;266.00;;
84682;SDS011;74905;44.124;18.116;2023-12-22T00:19:48;610.15;;;278.30;;
84682;SDS011;74905;44.124;18.116;2023-12-22T00:22:13;645.78;;;293.60;;
84682;SDS011;74905;44.124;18.116;2023-12-22T00:24:39;659.78;;;304.23;;
84682;SDS011;74905;44.124;18.116;2023-12-22T00:27:05;654.95;;;297.35;;
84682;SDS011;74905;44.124;18.116;2023-12-22T00:29:31;660.95;;;307.15;;
84682;SDS011;74905;44.124;18.116;2023-12-22T00:32:01;648.67;;;303.70;;
84682;SDS011;74905;44.124;18.116;2023-12-22T00:34:26;620.45;;;283.20;;
84682;SDS011;74905;44.124;18.116;2023-12-22T00:36:52;615.03;;;283.70;;
84682;SDS011;74905;44.124;18.116;2023-12-22T00:39:18;570.80;;;264.77;;
84682;SDS011;74905;44.124;18.116;2023-12-22T00:41:43;583.63;;;267.17;;
84682;SDS011;74905;44.124;18.116;2023-12-22T00:44:09;613.78;;;290.45;;
84682;SDS011;74905;44.124;18.116;2023-12-22T00:46:34;657.75;;;305.52;;
84682;SDS011;74905;44.124;18.116;2023-12-22T00:49:00;616.65;;;289.60;;
84682;SDS011;74905;44.124;18.116;2023-12-22T00:51:25;626.17;;;292.70;;
84682;SDS011;74905;44.124;18.116;2023-12-22T00:53:51;589.78;;;267.27;;
84682;SDS011;74905;44.124;18.116;2023-12-22T00:56:17;441.38;;;178.13;;
84682;SDS011;74905;44.124;18.116;2023-12-22T00:58:42;530.17;;;234.65;;
84682;SDS011;74905;44.124;18.116;2023-12-22T01:01:08;512.22;;;224.93;;
84682;SDS011;74905;44.124;18.116;2023-12-22T01:03:33;533.47;;;240.45;;
84682;SDS011;74905;44.124;18.116;2023-12-22T01:05:59;559.33;;;253.95;;
84682;SDS011;74905;44.124;18.116;2023-12-22T01:08:25;536.70;;;240.02;;
84682;SDS011;74905;44.124;18.116;2023-12-22T01:10:50;517.08;;;225.63;;
84682;SDS011;74905;44.124;18.116;2023-12-22T01:13:16;447.13;;;182.43;;
84682;SDS011;74905;44.124;18.116;2023-12-22T01:15:41;443.42;;;174.30;;
84682;SDS011;74905;44.124;18.116;2023-12-22T01:18:09;425.05;;;167.30;;
84682;SDS011;74905;44.124;18.116;2023-12-22T01:20:35;370.40;;;148.90;;
84682;SDS011;74905;44.124;18.116;2023-12-22T01:23:01;388.50;;;155.90;;
84682;SDS011;74905;44.124;18.116;2023-12-22T01:25:27;444.10;;;179.20;;
84682;SDS011;74905;44.124;18.116;2023-12-22T01:27:52;453.50;;;185.00;;
84682;SDS011;74905;44.124;18.116;2023-12-22T01:32:46;438.48;;;183.30;;
84682;SDS011;74905;44.124;18.116;2023-12-22T01:35:12;452.45;;;185.55;;
84682;SDS011;74905;44.124;18.116;2023-12-22T01:37:37;457.58;;;190.40;;
84682;SDS011;74905;44.124;18.116;2023-12-22T01:40:03;431.70;;;182.30;;
84682;SDS011;74905;44.124;18.116;2023-12-22T01:42:29;451.90;;;181.00;;
84682;SDS011;74905;44.124;18.116;2023-12-22T01:44:55;435.48;;;175.13;;
84682;SDS011;74905;44.124;18.116;2023-12-22T01:47:21;442.48;;;173.77;;
84682;SDS011;74905;44.124;18.116;2023-12-22T01:49:47;442.40;;;180.15;;
84682;SDS011;74905;44.124;18.116;2023-12-22T01:52:13;437.90;;;178.43;;
84682;SDS011;74905;44.124;18.116;2023-12-22T01:54:39;450.00;;;189.75;;
84682;SDS011;74905;44.124;18.116;2023-12-22T01:57:05;477.05;;;193.20;;
84682;SDS011;74905;44.124;18.116;2023-12-22T01:59:31;446.98;;;183.23;;
84682;SDS011;74905;44.124;18.116;2023-12-22T02:02:02;474.80;;;201.48;;
84682;SDS011;74905;44.124;18.116;2023-12-22T02:04:28;497.98;;;209.45;;
84682;SDS011;74905;44.124;18.116;2023-12-22T02:07:01;480.00;;;205.77;;
84682;SDS011;74905;44.124;18.116;2023-12-22T02:09:27;412.80;;;167.25;;
84682;SDS011;74905;44.124;18.116;2023-12-22T02:11:52;415.95;;;169.18;;
84682;SDS011;74905;44.124;18.116;2023-12-22T02:14:18;376.02;;;157.35;;
84682;SDS011;74905;44.124;18.116;2023-12-22T02:16:50;339.73;;;135.90;;
84682;SDS011;74905;44.124;18.116;2023-12-22T02:22:04;323.27;;;132.07;;
84682;SDS011;74905;44.124;18.116;2023-12-22T02:24:31;378.90;;;154.00;;
84682;SDS011;74905;44.124;18.116;2023-12-22T02:27:03;431.45;;;183.45;;
84682;SDS011;74905;44.124;18.116;2023-12-22T02:29:37;422.23;;;169.25;;
84682;SDS011;74905;44.124;18.116;2023-12-22T02:32:12;410.13;;;161.27;;
84682;SDS011;74905;44.124;18.116;2023-12-22T02:34:46;377.92;;;152.25;;
84682;SDS011;74905;44.124;18.116;2023-12-22T02:37:16;425.88;;;175.70;;
84682;SDS011;74905;44.124;18.116;2023-12-22T02:39:43;454.75;;;188.40;;
84682;SDS011;74905;44.124;18.116;2023-12-22T02:42:09;436.67;;;178.05;;
84682;SDS011;74905;44.124;18.116;2023-12-22T02:44:35;446.38;;;185.45;;
84682;SDS011;74905;44.124;18.116;2023-12-22T02:47:01;451.15;;;181.30;;
84682;SDS011;74905;44.124;18.116;2023-12-22T02:49:27;417.58;;;174.90;;
84682;SDS011;74905;44.124;18.116;2023-12-22T02:51:52;468.52;;;191.63;;
84682;SDS011;74905;44.124;18.116;2023-12-22T02:54:18;453.15;;;185.45;;
84682;SDS011;74905;44.124;18.116;2023-12-22T02:56:45;395.42;;;160.27;;
84682;SDS011;74905;44.124;18.116;2023-12-22T02:59:14;367.25;;;140.85;;
84682;SDS011;74905;44.124;18.116;2023-12-22T03:01:39;398.77;;;160.00;;
84682;SDS011;74905;44.124;18.116;2023-12-22T03:04:05;388.67;;;156.75;;
84682;SDS011;74905;44.124;18.116;2023-12-22T03:06:31;359.20;;;141.88;;
84682;SDS011;74905;44.124;18.116;2023-12-22T03:08:56;345.77;;;136.77;;
84682;SDS011;74905;44.124;18.116;2023-12-22T03:11:22;322.50;;;133.57;;
84682;SDS011;74905;44.124;18.116;2023-12-22T03:13:47;346.08;;;141.23;;
84682;SDS011;74905;44.124;18.116;2023-12-22T03:16:13;305.92;;;123.30;;
84682;SDS011;74905;44.124;18.116;2023-12-22T03:18:38;256.50;;;103.13;;
84682;SDS011;74905;44.124;18.116;2023-12-22T03:21:04;264.27;;;107.03;;
84682;SDS011;74905;44.124;18.116;2023-12-22T03:23:30;369.67;;;143.35;;
84682;SDS011;74905;44.124;18.116;2023-12-22T03:25:56;364.83;;;142.70;;
84682;SDS011;74905;44.124;18.116;2023-12-22T03:28:21;323.10;;;130.30;;
84682;SDS011;74905;44.124;18.116;2023-12-22T03:30:47;322.48;;;129.65;;
84682;SDS011;74905;44.124;18.116;2023-12-22T03:33:12;359.33;;;147.95;;
84682;SDS011;74905;44.124;18.116;2023-12-22T03:35:38;359.02;;;144.60;;
84682;SDS011;74905;44.124;18.116;2023-12-22T03:38:04;345.90;;;135.70;;
84682;SDS011;74905;44.124;18.116;2023-12-22T03:40:29;333.02;;;134.00;;
84682;SDS011;74905;44.124;18.116;2023-12-22T03:42:55;322.60;;;127.78;;
84682;SDS011;74905;44.124;18.116;2023-12-22T03:45:21;331.88;;;129.75;;
84682;SDS011;74905;44.124;18.116;2023-12-22T03:47:47;329.98;;;130.63;;
84682;SDS011;74905;44.124;18.116;2023-12-22T03:50:12;293.88;;;117.85;;
84682;SDS011;74905;44.124;18.116;2023-12-22T03:52:38;274.60;;;113.30;;
84682;SDS011;74905;44.124;18.116;2023-12-22T03:55:04;247.95;;;100.05;;
84682;SDS011;74905;44.124;18.116;2023-12-22T03:57:29;202.77;;;86.03;;
84682;SDS011;74905;44.124;18.116;2023-12-22T03:59:55;277.50;;;114.63;;
84682;SDS011;74905;44.124;18.116;2023-12-22T04:02:21;267.77;;;112.88;;
84682;SDS011;74905;44.124;18.116;2023-12-22T04:04:47;322.92;;;126.65;;
84682;SDS011;74905;44.124;18.116;2023-12-22T04:07:13;321.50;;;124.57;;
84682;SDS011;74905;44.124;18.116;2023-12-22T04:09:38;285.92;;;118.93;;
84682;SDS011;74905;44.124;18.116;2023-12-22T04:12:04;283.98;;;114.97;;
84682;SDS011;74905;44.124;18.116;2023-12-22T04:14:30;268.98;;;109.03;;
84682;SDS011;74905;44.124;18.116;2023-12-22T04:16:55;279.98;;;115.40;;
84682;SDS011;74905;44.124;18.116;2023-12-22T04:19:22;295.02;;;119.78;;
84682;SDS011;74905;44.124;18.116;2023-12-22T04:21:48;294.33;;;118.70;;
84682;SDS011;74905;44.124;18.116;2023-12-22T04:24:13;285.73;;;118.47;;
84682;SDS011;74905;44.124;18.116;2023-12-22T04:26:39;269.67;;;110.10;;
84682;SDS011;74905;44.124;18.116;2023-12-22T04:29:05;241.05;;;101.53;;
84682;SDS011;74905;44.124;18.116;2023-12-22T04:31:30;242.93;;;97.93;;
84682;SDS011;74905;44.124;18.116;2023-12-22T04:33:56;237.77;;;97.43;;
84682;SDS011;74905;44.124;18.116;2023-12-22T04:36:22;269.40;;;105.88;;
84682;SDS011;74905;44.124;18.116;2023-12-22T04:38:47;342.90;;;137.23;;
84682;SDS011;74905;44.124;18.116;2023-12-22T04:41:13;314.48;;;128.57;;
84682;SDS011;74905;44.124;18.116;2023-12-22T04:43:38;270.23;;;115.93;;
84682;SDS011;74905;44.124;18.116;2023-12-22T04:46:04;289.48;;;117.13;;
84682;SDS011;74905;44.124;18.116;2023-12-22T04:48:30;195.93;;;82.43;;
84682;SDS011;74905;44.124;18.116;2023-12-22T04:50:56;187.13;;;77.50;;
84682;SDS011;74905;44.124;18.116;2023-12-22T04:53:21;199.43;;;82.07;;
84682;SDS011;74905;44.124;18.116;2023-12-22T04:55:47;202.57;;;90.20;;
84682;SDS011;74905;44.124;18.116;2023-12-22T04:58:13;184.13;;;78.47;;
84682;SDS011;74905;44.124;18.116;2023-12-22T05:00:38;220.32;;;92.15;;
84682;SDS011;74905;44.124;18.116;2023-12-22T05:03:04;223.02;;;96.72;;
84682;SDS011;74905;44.124;18.116;2023-12-22T05:05:29;220.68;;;91.57;;
84682;SDS011;74905;44.124;18.116;2023-12-22T05:07:55;201.88;;;85.93;;
84682;SDS011;74905;44.124;18.116;2023-12-22T05:10:20;226.32;;;96.45;;
84682;SDS011;74905;44.124;18.116;2023-12-22T05:12:46;208.30;;;88.75;;
84682;SDS011;74905;44.124;18.116;2023-12-22T05:15:11;213.93;;;84.13;;
84682;SDS011;74905;44.124;18.116;2023-12-22T05:17:37;188.73;;;79.78;;
84682;SDS011;74905;44.124;18.116;2023-12-22T05:20:03;191.45;;;83.18;;
84682;SDS011;74905;44.124;18.116;2023-12-22T05:22:29;218.45;;;88.97;;
84682;SDS011;74905;44.124;18.116;2023-12-22T05:24:55;184.43;;;78.57;;
84682;SDS011;74905;44.124;18.116;2023-12-22T05:27:22;211.85;;;87.57;;
84682;SDS011;74905;44.124;18.116;2023-12-22T05:29:48;226.63;;;94.63;;
84682;SDS011;74905;44.124;18.116;2023-12-22T05:32:13;215.55;;;92.82;;
84682;SDS011;74905;44.124;18.116;2023-12-22T05:34:39;210.82;;;88.15;;
84682;SDS011;74905;44.124;18.116;2023-12-22T05:37:04;211.23;;;92.95;;
84682;SDS011;74905;44.124;18.116;2023-12-22T05:39:30;198.02;;;85.05;;
84682;SDS011;74905;44.124;18.116;2023-12-22T05:41:57;195.68;;;82.55;;
84682;SDS011;74905;44.124;18.116;2023-12-22T05:44:23;202.13;;;86.05;;
84682;SDS011;74905;44.124;18.116;2023-12-22T05:46:49;203.52;;;89.68;;
84682;SDS011;74905;44.124;18.116;2023-12-22T05:49:15;217.55;;;89.47;;
84682;SDS011;74905;44.124;18.116;2023-12-22T05:51:41;288.17;;;118.22;;
84682;SDS011;74905;44.124;18.116;2023-12-22T05:54:07;265.27;;;111.70;;
84682;SDS011;74905;44.124;18.116;2023-12-22T05:56:34;245.73;;;101.15;;
84682;SDS011;74905;44.124;18.116;2023-12-22T05:58:59;273.85;;;119.28;;
84682;SDS011;74905;44.124;18.116;2023-12-22T06:01:25;268.38;;;115.68;;
84682;SDS011;74905;44.124;18.116;2023-12-22T06:03:52;225.70;;;100.22;;
84682;SDS011;74905;44.124;18.116;2023-12-22T06:06:19;234.95;;;106.32;;
84682;SDS011;74905;44.124;18.116;2023-12-22T06:08:44;240.10;;;108.50;;
84682;SDS011;74905;44.124;18.116;2023-12-22T06:11:10;275.42;;;116.28;;
84682;SDS011;74905;44.124;18.116;2023-12-22T06:13:36;283.52;;;121.82;;
84682;SDS011;74905;44.124;18.116;2023-12-22T06:16:01;260.95;;;118.13;;
84682;SDS011;74905;44.124;18.116;2023-12-22T06:18:27;279.35;;;118.47;;
84682;SDS011;74905;44.124;18.116;2023-12-22T06:20:53;264.80;;;116.50;;
84682;SDS011;74905;44.124;18.116;2023-12-22T06:23:19;230.02;;;107.88;;
84682;SDS011;74905;44.124;18.116;2023-12-22T06:25:45;282.98;;;124.80;;
84682;SDS011;74905;44.124;18.116;2023-12-22T06:28:12;336.75;;;140.80;;
84682;SDS011;74905;44.124;18.116;2023-12-22T06:30:38;328.48;;;142.90;;
84682;SDS011;74905;44.124;18.116;2023-12-22T06:33:04;316.02;;;135.10;;
84682;SDS011;74905;44.124;18.116;2023-12-22T06:35:29;333.40;;;143.15;;
84682;SDS011;74905;44.124;18.116;2023-12-22T06:38:02;321.23;;;141.05;;
84682;SDS011;74905;44.124;18.116;2023-12-22T06:40:30;317.63;;;131.18;;
84682;SDS011;74905;44.124;18.116;2023-12-22T06:42:56;275.77;;;118.45;;
84682;SDS011;74905;44.124;18.116;2023-12-22T06:45:21;262.67;;;114.38;;
84682;SDS011;74905;44.124;18.116;2023-12-22T06:47:47;286.95;;;122.25;;
84682;SDS011;74905;44.124;18.116;2023-12-22T06:50:13;291.35;;;124.70;;
84682;SDS011;74905;44.124;18.116;2023-12-22T06:52:38;265.88;;;118.07;;
84682;SDS011;74905;44.124;18.116;2023-12-22T06:55:04;353.73;;;157.55;;
84682;SDS011;74905;44.124;18.116;2023-12-22T06:57:30;316.85;;;147.00;;
84682;SDS011;74905;44.124;18.116;2023-12-22T06:59:56;282.92;;;126.40;;
84682;SDS011;74905;44.124;18.116;2023-12-22T07:02:22;286.88;;;124.43;;
84682;SDS011;74905;44.124;18.116;2023-12-22T07:07:36;237.00;;;100.78;;
84682;SDS011;74905;44.124;18.116;2023-12-22T07:10:02;242.60;;;104.00;;
84682;SDS011;74905;44.124;18.116;2023-12-22T07:12:28;195.23;;;82.70;;
84682;SDS011;74905;44.124;18.116;2023-12-22T07:14:54;258.20;;;109.97;;
84682;SDS011;74905;44.124;18.116;2023-12-22T07:17:20;300.85;;;126.15;;
84682;SDS011;74905;44.124;18.116;2023-12-22T07:19:46;293.40;;;126.20;;
84682;SDS011;74905;44.124;18.116;2023-12-22T07:22:12;294.52;;;133.35;;
84682;SDS011;74905;44.124;18.116;2023-12-22T07:24:37;299.92;;;136.02;;
84682;SDS011;74905;44.124;18.116;2023-12-22T07:27:03;306.58;;;141.95;;
84682;SDS011;74905;44.124;18.116;2023-12-22T07:29:30;292.92;;;130.40;;
84682;SDS011;74905;44.124;18.116;2023-12-22T07:31:56;305.45;;;141.52;;
84682;SDS011;74905;44.124;18.116;2023-12-22T07:34:21;281.20;;;126.90;;
84682;SDS011;74905;44.124;18.116;2023-12-22T07:36:47;278.98;;;128.98;;
84682;SDS011;74905;44.124;18.116;2023-12-22T07:39:13;266.90;;;117.80;;
84682;SDS011;74905;44.124;18.116;2023-12-22T07:41:39;240.65;;;112.35;;
84682;SDS011;74905;44.124;18.116;2023-12-22T07:44:05;243.82;;;109.55;;
84682;SDS011;74905;44.124;18.116;2023-12-22T07:46:31;226.48;;;104.68;;
84682;SDS011;74905;44.124;18.116;2023-12-22T07:48:57;262.35;;;124.18;;
84682;SDS011;74905;44.124;18.116;2023-12-22T07:51:22;246.23;;;118.07;;
84682;SDS011;74905;44.124;18.116;2023-12-22T07:53:48;220.68;;;105.43;;
84682;SDS011;74905;44.124;18.116;2023-12-22T07:56:14;199.00;;;89.18;;
84682;SDS011;74905;44.124;18.116;2023-12-22T07:58:39;208.68;;;93.95;;
84682;SDS011;74905;44.124;18.116;2023-12-22T08:01:05;199.93;;;88.85;;
84682;SDS011;74905;44.124;18.116;2023-12-22T08:03:31;162.73;;;72.57;;
84682;SDS011;74905;44.124;18.116;2023-12-22T08:05:58;171.50;;;77.80;;
84682;SDS011;74905;44.124;18.116;2023-12-22T08:08:23;153.38;;;68.38;;
84682;SDS011;74905;44.124;18.116;2023-12-22T08:10:49;145.07;;;67.80;;
84682;SDS011;74905;44.124;18.116;2023-12-22T08:13:15;131.80;;;59.70;;
84682;SDS011;74905;44.124;18.116;2023-12-22T08:15:43;120.53;;;56.80;;
84682;SDS011;74905;44.124;18.116;2023-12-22T08:18:09;145.32;;;67.72;;
84682;SDS011;74905;44.124;18.116;2023-12-22T08:20:34;137.43;;;64.53;;
84682;SDS011;74905;44.124;18.116;2023-12-22T08:23:00;142.70;;;65.13;;
84682;SDS011;74905;44.124;18.116;2023-12-22T08:25:26;147.63;;;66.55;;
84682;SDS011;74905;44.124;18.116;2023-12-22T08:27:52;138.10;;;65.85;;
84682;SDS011;74905;44.124;18.116;2023-12-22T08:30:18;158.30;;;71.60;;
84682;SDS011;74905;44.124;18.116;2023-12-22T08:32:43;204.15;;;89.20;;
84682;SDS011;74905;44.124;18.116;2023-12-22T08:35:09;210.60;;;95.32;;
84682;SDS011;74905;44.124;18.116;2023-12-22T08:37:35;196.75;;;93.85;;
84682;SDS011;74905;44.124;18.116;2023-12-22T08:40:00;197.25;;;91.43;;
84682;SDS011;74905;44.124;18.116;2023-12-22T08:42:26;171.30;;;79.18;;
84682;SDS011;74905;44.124;18.116;2023-12-22T08:44:54;225.85;;;107.65;;
84682;SDS011;74905;44.124;18.116;2023-12-22T08:47:20;244.20;;;113.07;;
84682;SDS011;74905;44.124;18.116;2023-12-22T08:49:46;241.85;;;110.07;;
84682;SDS011;74905;44.124;18.116;2023-12-22T08:52:11;202.20;;;95.20;;
84682;SDS011;74905;44.124;18.116;2023-12-22T08:54:38;69.00;;;32.97;;
84682;SDS011;74905;44.124;18.116;2023-12-22T08:57:04;51.25;;;24.95;;
84682;SDS011;74905;44.124;18.116;2023-12-22T08:59:30;31.67;;;15.55;;
84682;SDS011;74905;44.124;18.116;2023-12-22T09:01:55;43.97;;;18.38;;
84682;SDS011;74905;44.124;18.116;2023-12-22T09:04:21;48.55;;;23.77;;
84682;SDS011;74905;44.124;18.116;2023-12-22T09:06:48;101.53;;;36.83;;
84682;SDS011;74905;44.124;18.116;2023-12-22T09:09:14;107.25;;;43.08;;
84682;SDS011;74905;44.124;18.116;2023-12-22T09:11:40;80.95;;;37.78;;
84682;SDS011;74905;44.124;18.116;2023-12-22T09:14:05;101.75;;;42.10;;
84682;SDS011;74905;44.124;18.116;2023-12-22T09:16:35;108.95;;;48.53;;
84682;SDS011;74905;44.124;18.116;2023-12-22T09:19:02;106.43;;;48.60;;
84682;SDS011;74905;44.124;18.116;2023-12-22T09:21:27;116.13;;;49.92;;
84682;SDS011;74905;44.124;18.116;2023-12-22T09:23:53;94.38;;;46.03;;
84682;SDS011;74905;44.124;18.116;2023-12-22T09:26:19;101.40;;;45.67;;
84682;SDS011;74905;44.124;18.116;2023-12-22T09:28:46;106.25;;;49.90;;
84682;SDS011;74905;44.124;18.116;2023-12-22T09:31:11;96.93;;;42.75;;
84682;SDS011;74905;44.124;18.116;2023-12-22T09:33:38;107.13;;;46.40;;
84682;SDS011;74905;44.124;18.116;2023-12-22T09:36:05;120.22;;;52.70;;
84682;SDS011;74905;44.124;18.116;2023-12-22T09:38:31;145.25;;;58.65;;
84682;SDS011;74905;44.124;18.116;2023-12-22T09:40:57;131.80;;;55.20;;
84682;SDS011;74905;44.124;18.116;2023-12-22T09:43:23;101.05;;;43.10;;
84682;SDS011;74905;44.124;18.116;2023-12-22T09:45:49;79.07;;;37.78;;
84682;SDS011;74905;44.124;18.116;2023-12-22T09:48:20;56.92;;;27.73;;
84682;SDS011;74905;44.124;18.116;2023-12-22T09:50:52;48.97;;;23.83;;
84682;SDS011;74905;44.124;18.116;2023-12-22T09:53:21;69.97;;;30.17;;
84682;SDS011;74905;44.124;18.116;2023-12-22T09:55:49;70.35;;;32.47;;
84682;SDS011;74905;44.124;18.116;2023-12-22T09:58:15;87.68;;;37.65;;
84682;SDS011;74905;44.124;18.116;2023-12-22T10:00:42;88.18;;;38.33;;
84682;SDS011;74905;44.124;18.116;2023-12-22T10:03:10;90.93;;;41.80;;
84682;SDS011;74905;44.124;18.116;2023-12-22T10:05:37;84.70;;;41.03;;
84682;SDS011;74905;44.124;18.116;2023-12-22T10:08:05;72.97;;;33.08;;
84682;SDS011;74905;44.124;18.116;2023-12-22T10:10:32;64.35;;;29.25;;
84682;SDS011;74905;44.124;18.116;2023-12-22T10:12:58;68.20;;;33.33;;
84682;SDS011;74905;44.124;18.116;2023-12-22T10:15:24;73.53;;;31.80;;
84682;SDS011;74905;44.124;18.116;2023-12-22T10:17:52;43.60;;;21.25;;
84682;SDS011;74905;44.124;18.116;2023-12-22T10:20:19;44.65;;;22.25;;
84682;SDS011;74905;44.124;18.116;2023-12-22T10:22:45;48.50;;;22.52;;
84682;SDS011;74905;44.124;18.116;2023-12-22T10:25:14;53.13;;;25.95;;
84682;SDS011;74905;44.124;18.116;2023-12-22T10:27:42;62.50;;;28.25;;
84682;SDS011;74905;44.124;18.116;2023-12-22T10:30:08;56.70;;;26.15;;
84682;SDS011;74905;44.124;18.116;2023-12-22T10:32:39;47.25;;;24.38;;
84682;SDS011;74905;44.124;18.116;2023-12-22T10:37:40;43.55;;;22.83;;
84682;SDS011;74905;44.124;18.116;2023-12-22T10:40:08;43.03;;;22.35;;
84682;SDS011;74905;44.124;18.116;2023-12-22T10:42:34;39.50;;;20.10;;
84682;SDS011;74905;44.124;18.116;2023-12-22T10:45:00;38.75;;;17.85;;
84682;SDS011;74905;44.124;18.116;2023-12-22T10:47:27;36.83;;;18.95;;
84682;SDS011;74905;44.124;18.116;2023-12-22T10:49:54;42.72;;;21.17;;
84682;SDS011;74905;44.124;18.116;2023-12-22T10:52:20;61.83;;;30.27;;
84682;SDS011;74905;44.124;18.116;2023-12-22T10:54:46;71.65;;;34.85;;
84682;SDS011;74905;44.124;18.116;2023-12-22T10:57:16;77.68;;;37.72;;
84682;SDS011;74905;44.124;18.116;2023-12-22T10:59:46;75.07;;;37.92;;
84682;SDS011;74905;44.124;18.116;2023-12-22T11:02:16;77.78;;;37.53;;
84682;SDS011;74905;44.124;18.116;2023-12-22T11:05:04;73.90;;;38.30;;
84682;SDS011;74905;44.124;18.116;2023-12-22T11:10:06;86.38;;;42.58;;
84682;SDS011;74905;44.124;18.116;2023-12-22T11:12:35;96.97;;;46.80;;
84682;SDS011;74905;44.124;18.116;2023-12-22T11:15:03;104.80;;;49.95;;
84682;SDS011;74905;44.124;18.116;2023-12-22T11:17:35;115.10;;;52.17;;
84682;SDS011;74905;44.124;18.116;2023-12-22T11:20:05;106.70;;;49.50;;
84682;SDS011;74905;44.124;18.116;2023-12-22T11:22:31;111.07;;;52.47;;
84682;SDS011;74905;44.124;18.116;2023-12-22T11:24:58;109.32;;;51.22;;
84682;SDS011;74905;44.124;18.116;2023-12-22T11:27:27;118.90;;;58.78;;
84682;SDS011;74905;44.124;18.116;2023-12-22T11:29:54;150.75;;;68.10;;
84682;SDS011;74905;44.124;18.116;2023-12-22T11:32:20;128.23;;;62.55;;
84682;SDS011;74905;44.124;18.116;2023-12-22T11:34:46;126.90;;;57.28;;
84682;SDS011;74905;44.124;18.116;2023-12-22T11:37:13;94.63;;;48.80;;
84682;SDS011;74905;44.124;18.116;2023-12-22T11:39:41;63.30;;;33.13;;
84682;SDS011;74905;44.124;18.116;2023-12-22T11:42:12;80.68;;;40.53;;
84682;SDS011;74905;44.124;18.116;2023-12-22T11:44:41;68.75;;;35.17;;
84682;SDS011;74905;44.124;18.116;2023-12-22T11:47:07;48.38;;;23.48;;
84682;SDS011;74905;44.124;18.116;2023-12-22T11:49:37;45.28;;;21.02;;
84682;SDS011;74905;44.124;18.116;2023-12-22T11:52:10;26.15;;;16.35;;
84682;SDS011;74905;44.124;18.116;2023-12-22T12:02:40;29.63;;;15.23;;
84682;SDS011;74905;44.124;18.116;2023-12-22T12:05:07;24.48;;;13.23;;
84682;SDS011;74905;44.124;18.116;2023-12-22T12:13:06;30.83;;;15.75;;
84682;SDS011;74905;44.124;18.116;2023-12-22T12:15:33;26.33;;;13.45;;
84682;SDS011;74905;44.124;18.116;2023-12-22T12:17:59;27.23;;;14.45;;
84682;SDS011;74905;44.124;18.116;2023-12-22T12:20:26;33.75;;;16.27;;
84682;SDS011;74905;44.124;18.116;2023-12-22T12:22:52;26.60;;;15.13;;
84682;SDS011;74905;44.124;18.116;2023-12-22T12:25:21;53.05;;;22.50;;
84682;SDS011;74905;44.124;18.116;2023-12-22T12:27:50;37.00;;;16.92;;
84682;SDS011;74905;44.124;18.116;2023-12-22T12:30:26;42.38;;;19.48;;
84682;SDS011;74905;44.124;18.116;2023-12-22T12:32:51;20.30;;;9.20;;
84682;SDS011;74905;44.124;18.116;2023-12-22T12:35:18;24.60;;;11.60;;
84682;SDS011;74905;44.124;18.116;2023-12-22T12:37:44;25.30;;;11.02;;
84682;SDS011;74905;44.124;18.116;2023-12-22T12:42:45;27.95;;;12.05;;
84682;SDS011;74905;44.124;18.116;2023-12-22T12:45:11;24.52;;;10.48;;
84682;SDS011;74905;44.124;18.116;2023-12-22T12:47:36;20.88;;;11.43;;
84682;SDS011;74905;44.124;18.116;2023-12-22T12:50:02;23.83;;;10.73;;
84682;SDS011;74905;44.124;18.116;2023-12-22T12:52:29;23.52;;;12.65;;
84682;SDS011;74905;44.124;18.116;2023-12-22T12:54:54;17.35;;;9.23;;
84682;SDS011;74905;44.124;18.116;2023-12-22T12:57:21;17.23;;;9.32;;
84682;SDS011;74905;44.124;18.116;2023-12-22T12:59:47;28.38;;;13.40;;
84682;SDS011;74905;44.124;18.116;2023-12-22T13:02:17;17.55;;;9.50;;
84682;SDS011;74905;44.124;18.116;2023-12-22T13:04:44;22.67;;;10.77;;
84682;SDS011;74905;44.124;18.116;2023-12-22T13:07:10;8.45;;;4.88;;
84682;SDS011;74905;44.124;18.116;2023-12-22T13:09:38;11.07;;;5.22;;
84682;SDS011;74905;44.124;18.116;2023-12-22T13:12:06;19.05;;;8.57;;
84682;SDS011;74905;44.124;18.116;2023-12-22T13:14:32;22.67;;;9.73;;
84682;SDS011;74905;44.124;18.116;2023-12-22T13:16:58;20.23;;;8.65;;
84682;SDS011;74905;44.124;18.116;2023-12-22T13:19:24;24.60;;;9.13;;
84682;SDS011;74905;44.124;18.116;2023-12-22T13:21:50;16.88;;;8.20;;
84682;SDS011;74905;44.124;18.116;2023-12-22T13:24:16;11.38;;;5.85;;
84682;SDS011;74905;44.124;18.116;2023-12-22T13:26:43;11.80;;;6.80;;
84682;SDS011;74905;44.124;18.116;2023-12-22T13:29:10;9.07;;;4.90;;
84682;SDS011;74905;44.124;18.116;2023-12-22T13:31:41;11.43;;;6.40;;
84682;SDS011;74905;44.124;18.116;2023-12-22T13:34:14;14.55;;;7.55;;
84682;SDS011;74905;44.124;18.116;2023-12-22T13:36:40;16.55;;;8.38;;
84682;SDS011;74905;44.124;18.116;2023-12-22T13:39:09;14.68;;;8.07;;
84682;SDS011;74905;44.124;18.116;2023-12-22T13:41:41;14.38;;;8.73;;
84682;SDS011;74905;44.124;18.116;2023-12-22T13:44:10;8.02;;;4.88;;
84682;SDS011;74905;44.124;18.116;2023-12-22T13:46:36;7.93;;;5.85;;
84682;SDS011;74905;44.124;18.116;2023-12-22T13:49:06;16.08;;;9.77;;
84682;SDS011;74905;44.124;18.116;2023-12-22T13:54:09;23.30;;;13.30;;
84682;SDS011;74905;44.124;18.116;2023-12-22T13:56:35;18.83;;;10.85;;
84682;SDS011;74905;44.124;18.116;2023-12-22T13:59:06;24.55;;;14.05;;
84682;SDS011;74905;44.124;18.116;2023-12-22T14:01:32;37.03;;;21.15;;
84682;SDS011;74905;44.124;18.116;2023-12-22T14:04:00;46.97;;;28.17;;
84682;SDS011;74905;44.124;18.116;2023-12-22T14:06:26;17.58;;;9.45;;
84682;SDS011;74905;44.124;18.116;2023-12-22T14:08:55;32.33;;;17.52;;
84682;SDS011;74905;44.124;18.116;2023-12-22T14:11:21;20.42;;;12.77;;
84682;SDS011;74905;44.124;18.116;2023-12-22T14:13:48;23.48;;;13.20;;
84682;SDS011;74905;44.124;18.116;2023-12-22T14:16:14;36.55;;;15.63;;
84682;SDS011;74905;44.124;18.116;2023-12-22T14:18:41;32.63;;;15.88;;
84682;SDS011;74905;44.124;18.116;2023-12-22T14:21:07;28.55;;;15.85;;
84682;SDS011;74905;44.124;18.116;2023-12-22T14:23:34;16.65;;;10.57;;